Pagrindinis puslapis
METAR-TAF:

METAR-TAF

Oro uostai :

Klyvlendas, Ohajas, Jungtinės Amerikos Valstijos

platuma: 41-24-18N, ilguma: 081-51-10W, Aukštis: 241 m

Dabartinis oras

Ataskaita buvo paskelbta 41 minutes, ne 19:51 UTC
Vėjas 6 kt iš Vakarų/Pietvakarių
Temperatūra 16°C
Drėgmė 63%
Slėgis 1009 hPa
Matomumas: 16.1 km
Giedras dangus

METAR: KCLE 291951Z AUTO 25006KT 10SM CLR 16/09 A2980 RMK AO2 SLP107 T01610089

Laikas: 16:32 (20:32 UTC)

Prognozė

Ataskaita buvo paskelbta 3 valandos ir 12 minutes, ne 17:20 UTC
Prognozė galioja nuo 29 metu 18 UTC su 30 metu 24 UTC
Vėjas 7 kt iš Vakarų/Pietvakarių
Matomumas: 10 km
Išsisklaidę debesys ne aukštis 4000 ft
Nuo 29 metu 2300 UTC
Vėjas 11 kt iš Pietų/Pietvakarių
Matomumas: 10 km
Su prošvaistėmis ne aukštis 4000 ft
Nuo 30 metu 1400 UTC
Vėjas 18 kt iš Pietvakarių su gūsio iki 31 kt
Matomumas: 10 km
Išsisklaidę debesys ne aukštis 5000 ft

TAF: KCLE 291720Z 2918/3024 24007KT P6SM SCT040 FM292300 21011KT P6SM BKN040 FM301400 22018G31KT P6SM SCT050

Orai ataskaitas ir orų prognozės (METAR, TAF).

turimą stotys yra geltonos ir raudonos taškus žemėlapyje.

Perkelti pele per norėdami pamatyti stoties vardą.

Tada spustelėkite, norėdami matyti oro stebėjimo ir prognozės.

Norėdami pakeisti žemėlapį: spustelėkite ant žalios mygtukų su juodo kryžiaus žemyn,; žalią mygtuką su brūkšneliu, jei norite nutolinti; arba žalių rodyklių gretimoms žemėlapius.


METAR-TAF: